Terminal Aerodrome Forecast
Issued by NWS

Home | Current Version | Previous Version | Text Only | Print | Product List | Glossary On
Versions: 1 2 3 4 5 6 7 8 9 10 11 12 13 14 15 16 17
000
FTUS44 KLZK 290500
TAFLIT
TAF
KLIT 290520Z 2906/3006 10008KT P6SM SCT025
      TEMPO 2911/2915 BKN025
     FM291500 18010G18KT P6SM SCT030 BKN250
     FM300100 VRB06KT P6SM VCSH BKN040=

USA.gov is the U.S. government's official web portal to all federal, state and local government web resources and services.